sensor_id;sensor_type;location;lat;lon;timestamp;temperature;humidity
28532;DHT22;15738;44.860;10.066;2023-07-02T00:02:27;21.70;99.90
28532;DHT22;15738;44.860;10.066;2023-07-02T00:05:13;21.70;99.90
28532;DHT22;15738;44.860;10.066;2023-07-02T00:07:58;21.70;99.90
28532;DHT22;15738;44.860;10.066;2023-07-02T00:10:44;21.60;99.90
28532;DHT22;15738;44.860;10.066;2023-07-02T00:13:30;21.60;99.90
28532;DHT22;15738;44.860;10.066;2023-07-02T00:16:16;21.70;99.90
28532;DHT22;15738;44.860;10.066;2023-07-02T00:19:02;21.60;99.90
28532;DHT22;15738;44.860;10.066;2023-07-02T00:21:47;21.60;99.90
28532;DHT22;15738;44.860;10.066;2023-07-02T00:24:33;21.60;99.90
28532;DHT22;15738;44.860;10.066;2023-07-02T00:27:19;21.60;99.90
28532;DHT22;15738;44.860;10.066;2023-07-02T00:30:05;21.60;99.90
28532;DHT22;15738;44.860;10.066;2023-07-02T00:32:51;21.60;99.90
28532;DHT22;15738;44.860;10.066;2023-07-02T00:35:36;21.60;99.90
28532;DHT22;15738;44.860;10.066;2023-07-02T00:38:22;21.60;99.90
28532;DHT22;15738;44.860;10.066;2023-07-02T00:41:10;21.60;99.90
28532;DHT22;15738;44.860;10.066;2023-07-02T00:43:56;21.60;99.90
28532;DHT22;15738;44.860;10.066;2023-07-02T00:46:41;21.60;99.90
28532;DHT22;15738;44.860;10.066;2023-07-02T00:49:27;21.50;99.90
28532;DHT22;15738;44.860;10.066;2023-07-02T00:52:13;21.50;99.90
28532;DHT22;15738;44.860;10.066;2023-07-02T00:54:59;21.50;99.90
28532;DHT22;15738;44.860;10.066;2023-07-02T00:57:45;21.50;99.90
28532;DHT22;15738;44.860;10.066;2023-07-02T01:00:32;21.40;99.90
28532;DHT22;15738;44.860;10.066;2023-07-02T01:03:18;21.40;99.90
28532;DHT22;15738;44.860;10.066;2023-07-02T01:06:03;21.40;99.90
28532;DHT22;15738;44.860;10.066;2023-07-02T01:08:49;21.40;99.90
28532;DHT22;15738;44.860;10.066;2023-07-02T01:17:09;21.30;99.90
28532;DHT22;15738;44.860;10.066;2023-07-02T01:19:56;21.20;99.90
28532;DHT22;15738;44.860;10.066;2023-07-02T01:22:45;21.20;99.90
28532;DHT22;15738;44.860;10.066;2023-07-02T01:25:31;21.20;99.90
28532;DHT22;15738;44.860;10.066;2023-07-02T01:28:23;21.10;99.90
28532;DHT22;15738;44.860;10.066;2023-07-02T01:31:10;21.20;99.90
28532;DHT22;15738;44.860;10.066;2023-07-02T01:33:56;21.10;99.90
28532;DHT22;15738;44.860;10.066;2023-07-02T01:36:41;21.10;99.90
28532;DHT22;15738;44.860;10.066;2023-07-02T01:39:28;21.00;99.90
28532;DHT22;15738;44.860;10.066;2023-07-02T01:42:17;21.00;99.90
28532;DHT22;15738;44.860;10.066;2023-07-02T01:45:04;20.90;99.90
28532;DHT22;15738;44.860;10.066;2023-07-02T01:47:50;20.90;99.90
28532;DHT22;15738;44.860;10.066;2023-07-02T01:50:36;21.00;99.90
28532;DHT22;15738;44.860;10.066;2023-07-02T01:53:22;21.00;99.90
28532;DHT22;15738;44.860;10.066;2023-07-02T01:56:07;21.00;99.90
28532;DHT22;15738;44.860;10.066;2023-07-02T01:58:53;21.00;99.90
28532;DHT22;15738;44.860;10.066;2023-07-02T02:01:39;21.00;99.90
28532;DHT22;15738;44.860;10.066;2023-07-02T02:04:28;20.90;99.90
28532;DHT22;15738;44.860;10.066;2023-07-02T02:07:14;20.90;99.90
28532;DHT22;15738;44.860;10.066;2023-07-02T02:09:59;20.90;99.90
28532;DHT22;15738;44.860;10.066;2023-07-02T02:12:45;20.90;99.90
28532;DHT22;15738;44.860;10.066;2023-07-02T02:15:32;20.90;99.90
28532;DHT22;15738;44.860;10.066;2023-07-02T02:18:18;20.80;99.90
28532;DHT22;15738;44.860;10.066;2023-07-02T02:21:04;20.80;99.90
28532;DHT22;15738;44.860;10.066;2023-07-02T02:23:50;20.70;99.90
28532;DHT22;15738;44.860;10.066;2023-07-02T02:26:35;20.70;99.90
28532;DHT22;15738;44.860;10.066;2023-07-02T02:29:21;20.70;99.90
28532;DHT22;15738;44.860;10.066;2023-07-02T02:32:07;20.70;99.90
28532;DHT22;15738;44.860;10.066;2023-07-02T02:34:53;20.70;99.90
28532;DHT22;15738;44.860;10.066;2023-07-02T02:37:39;20.60;99.90
28532;DHT22;15738;44.860;10.066;2023-07-02T02:40:26;20.60;99.90
28532;DHT22;15738;44.860;10.066;2023-07-02T02:43:12;20.60;99.90
28532;DHT22;15738;44.860;10.066;2023-07-02T02:45:57;20.60;99.90
28532;DHT22;15738;44.860;10.066;2023-07-02T02:48:44;20.60;99.90
28532;DHT22;15738;44.860;10.066;2023-07-02T02:51:30;20.50;99.90
28532;DHT22;15738;44.860;10.066;2023-07-02T02:54:15;20.50;99.90
28532;DHT22;15738;44.860;10.066;2023-07-02T02:57:01;20.50;99.90
28532;DHT22;15738;44.860;10.066;2023-07-02T02:59:47;20.60;99.90
28532;DHT22;15738;44.860;10.066;2023-07-02T03:02:33;20.60;99.90
28532;DHT22;15738;44.860;10.066;2023-07-02T03:05:19;20.60;99.90
28532;DHT22;15738;44.860;10.066;2023-07-02T03:08:05;20.60;99.90
28532;DHT22;15738;44.860;10.066;2023-07-02T03:10:50;20.60;99.90
28532;DHT22;15738;44.860;10.066;2023-07-02T03:13:36;20.60;99.90
28532;DHT22;15738;44.860;10.066;2023-07-02T03:16:22;20.50;99.90
28532;DHT22;15738;44.860;10.066;2023-07-02T03:19:07;20.50;99.90
28532;DHT22;15738;44.860;10.066;2023-07-02T03:21:53;20.40;99.90
28532;DHT22;15738;44.860;10.066;2023-07-02T03:24:39;20.50;99.90
28532;DHT22;15738;44.860;10.066;2023-07-02T03:27:24;20.50;99.90
28532;DHT22;15738;44.860;10.066;2023-07-02T03:30:11;20.50;99.90
28532;DHT22;15738;44.860;10.066;2023-07-02T03:32:57;20.40;99.90
28532;DHT22;15738;44.860;10.066;2023-07-02T03:35:43;20.40;99.90
28532;DHT22;15738;44.860;10.066;2023-07-02T03:38:29;20.40;99.90
28532;DHT22;15738;44.860;10.066;2023-07-02T03:41:14;20.40;99.90
28532;DHT22;15738;44.860;10.066;2023-07-02T03:44:00;20.40;99.90
28532;DHT22;15738;44.860;10.066;2023-07-02T03:46:46;20.50;99.90
28532;DHT22;15738;44.860;10.066;2023-07-02T03:49:32;20.40;99.90
28532;DHT22;15738;44.860;10.066;2023-07-02T03:52:17;20.40;99.90
28532;DHT22;15738;44.860;10.066;2023-07-02T03:55:03;20.40;99.90
28532;DHT22;15738;44.860;10.066;2023-07-02T03:57:49;20.40;99.90
28532;DHT22;15738;44.860;10.066;2023-07-02T04:00:35;20.40;99.90
28532;DHT22;15738;44.860;10.066;2023-07-02T04:03:21;20.40;99.90
28532;DHT22;15738;44.860;10.066;2023-07-02T04:06:07;20.30;99.90
28532;DHT22;15738;44.860;10.066;2023-07-02T04:08:53;20.30;99.90
28532;DHT22;15738;44.860;10.066;2023-07-02T04:11:38;20.30;99.90
28532;DHT22;15738;44.860;10.066;2023-07-02T04:14:24;20.40;99.90
28532;DHT22;15738;44.860;10.066;2023-07-02T04:17:10;20.40;99.90
28532;DHT22;15738;44.860;10.066;2023-07-02T04:19:56;20.40;99.90
28532;DHT22;15738;44.860;10.066;2023-07-02T04:22:42;20.40;99.90
28532;DHT22;15738;44.860;10.066;2023-07-02T04:25:28;20.30;99.90
28532;DHT22;15738;44.860;10.066;2023-07-02T04:28:34;20.30;99.90
28532;DHT22;15738;44.860;10.066;2023-07-02T04:31:20;20.40;99.90
28532;DHT22;15738;44.860;10.066;2023-07-02T04:34:05;20.50;99.90
28532;DHT22;15738;44.860;10.066;2023-07-02T04:36:51;20.60;99.90
28532;DHT22;15738;44.860;10.066;2023-07-02T04:39:38;20.60;99.90
28532;DHT22;15738;44.860;10.066;2023-07-02T04:42:24;20.70;99.90
28532;DHT22;15738;44.860;10.066;2023-07-02T04:45:13;20.80;99.90
28532;DHT22;15738;44.860;10.066;2023-07-02T04:48:03;20.90;99.90
28532;DHT22;15738;44.860;10.066;2023-07-02T04:50:49;21.10;99.90
28532;DHT22;15738;44.860;10.066;2023-07-02T04:53:35;21.40;99.90
28532;DHT22;15738;44.860;10.066;2023-07-02T04:56:23;21.60;99.90
28532;DHT22;15738;44.860;10.066;2023-07-02T04:59:08;21.60;99.90
28532;DHT22;15738;44.860;10.066;2023-07-02T05:01:54;21.70;99.90
28532;DHT22;15738;44.860;10.066;2023-07-02T05:04:39;21.70;99.90
28532;DHT22;15738;44.860;10.066;2023-07-02T05:07:25;21.80;99.90
28532;DHT22;15738;44.860;10.066;2023-07-02T05:10:11;21.90;99.90
28532;DHT22;15738;44.860;10.066;2023-07-02T05:12:58;21.90;99.90
28532;DHT22;15738;44.860;10.066;2023-07-02T05:15:44;22.00;99.90
28532;DHT22;15738;44.860;10.066;2023-07-02T05:18:30;22.10;99.90
28532;DHT22;15738;44.860;10.066;2023-07-02T05:21:19;22.20;99.90
28532;DHT22;15738;44.860;10.066;2023-07-02T05:24:04;22.30;99.90
28532;DHT22;15738;44.860;10.066;2023-07-02T05:26:50;22.40;99.90
28532;DHT22;15738;44.860;10.066;2023-07-02T05:29:36;22.60;99.90
28532;DHT22;15738;44.860;10.066;2023-07-02T05:32:21;22.70;99.90
28532;DHT22;15738;44.860;10.066;2023-07-02T05:35:07;22.90;99.90
28532;DHT22;15738;44.860;10.066;2023-07-02T05:37:53;22.90;99.90
28532;DHT22;15738;44.860;10.066;2023-07-02T05:40:39;22.90;99.90
28532;DHT22;15738;44.860;10.066;2023-07-02T05:43:25;22.90;99.90
28532;DHT22;15738;44.860;10.066;2023-07-02T05:46:11;23.00;99.90
28532;DHT22;15738;44.860;10.066;2023-07-02T05:48:57;23.30;99.90
28532;DHT22;15738;44.860;10.066;2023-07-02T05:51:45;23.50;99.90
28532;DHT22;15738;44.860;10.066;2023-07-02T05:54:31;23.80;99.90
28532;DHT22;15738;44.860;10.066;2023-07-02T05:57:17;24.10;99.90
28532;DHT22;15738;44.860;10.066;2023-07-02T06:00:06;24.40;99.90
28532;DHT22;15738;44.860;10.066;2023-07-02T06:02:56;24.40;99.90
28532;DHT22;15738;44.860;10.066;2023-07-02T06:05:42;24.60;99.90
28532;DHT22;15738;44.860;10.066;2023-07-02T06:08:27;24.90;99.90
28532;DHT22;15738;44.860;10.066;2023-07-02T06:11:13;25.10;99.90
28532;DHT22;15738;44.860;10.066;2023-07-02T06:13:59;25.20;99.90
28532;DHT22;15738;44.860;10.066;2023-07-02T06:16:45;25.00;99.90
28532;DHT22;15738;44.860;10.066;2023-07-02T06:19:31;25.00;99.90
28532;DHT22;15738;44.860;10.066;2023-07-02T06:22:17;25.30;99.90
28532;DHT22;15738;44.860;10.066;2023-07-02T06:25:02;25.50;99.90
28532;DHT22;15738;44.860;10.066;2023-07-02T06:27:50;25.60;99.90
28532;DHT22;15738;44.860;10.066;2023-07-02T06:30:37;25.80;99.90
28532;DHT22;15738;44.860;10.066;2023-07-02T06:33:23;25.80;99.90
28532;DHT22;15738;44.860;10.066;2023-07-02T06:36:08;25.90;99.90
28532;DHT22;15738;44.860;10.066;2023-07-02T06:38:57;26.10;99.90
28532;DHT22;15738;44.860;10.066;2023-07-02T06:41:43;26.20;99.90
28532;DHT22;15738;44.860;10.066;2023-07-02T06:44:29;26.50;99.90
28532;DHT22;15738;44.860;10.066;2023-07-02T06:47:15;26.80;99.90
28532;DHT22;15738;44.860;10.066;2023-07-02T06:50:01;27.00;99.90
28532;DHT22;15738;44.860;10.066;2023-07-02T06:52:48;27.00;99.90
28532;DHT22;15738;44.860;10.066;2023-07-02T06:55:33;27.20;99.90
28532;DHT22;15738;44.860;10.066;2023-07-02T06:58:19;27.50;99.90
28532;DHT22;15738;44.860;10.066;2023-07-02T07:01:04;27.60;99.90
28532;DHT22;15738;44.860;10.066;2023-07-02T07:03:50;27.20;99.90
28532;DHT22;15738;44.860;10.066;2023-07-02T07:06:36;27.20;99.90
28532;DHT22;15738;44.860;10.066;2023-07-02T07:09:22;27.50;99.90
28532;DHT22;15738;44.860;10.066;2023-07-02T07:12:08;28.00;99.90
28532;DHT22;15738;44.860;10.066;2023-07-02T07:14:54;28.20;99.90
28532;DHT22;15738;44.860;10.066;2023-07-02T07:17:40;28.40;99.90
28532;DHT22;15738;44.860;10.066;2023-07-02T07:20:26;28.60;99.90
28532;DHT22;15738;44.860;10.066;2023-07-02T07:23:11;28.70;99.90
28532;DHT22;15738;44.860;10.066;2023-07-02T07:25:57;28.80;99.90
28532;DHT22;15738;44.860;10.066;2023-07-02T07:28:43;29.00;99.90
28532;DHT22;15738;44.860;10.066;2023-07-02T07:31:29;29.30;99.90
28532;DHT22;15738;44.860;10.066;2023-07-02T07:34:15;29.30;99.90
28532;DHT22;15738;44.860;10.066;2023-07-02T07:37:00;29.40;99.90
28532;DHT22;15738;44.860;10.066;2023-07-02T07:39:46;29.10;99.90
28532;DHT22;15738;44.860;10.066;2023-07-02T07:42:32;29.40;99.90
28532;DHT22;15738;44.860;10.066;2023-07-02T07:45:18;29.50;99.90
28532;DHT22;15738;44.860;10.066;2023-07-02T07:48:04;29.90;99.90
28532;DHT22;15738;44.860;10.066;2023-07-02T07:50:50;29.90;99.90
28532;DHT22;15738;44.860;10.066;2023-07-02T07:53:39;30.20;99.90
28532;DHT22;15738;44.860;10.066;2023-07-02T07:56:25;29.90;99.90
28532;DHT22;15738;44.860;10.066;2023-07-02T07:59:11;29.80;99.90
28532;DHT22;15738;44.860;10.066;2023-07-02T08:01:58;30.10;99.90
28532;DHT22;15738;44.860;10.066;2023-07-02T08:04:44;30.40;99.90
28532;DHT22;15738;44.860;10.066;2023-07-02T08:07:31;30.40;99.90
28532;DHT22;15738;44.860;10.066;2023-07-02T08:10:16;30.60;99.90
28532;DHT22;15738;44.860;10.066;2023-07-02T08:13:02;30.60;99.90
28532;DHT22;15738;44.860;10.066;2023-07-02T08:15:48;30.60;99.90
28532;DHT22;15738;44.860;10.066;2023-07-02T08:18:34;30.70;99.90
28532;DHT22;15738;44.860;10.066;2023-07-02T08:21:20;30.80;99.90
28532;DHT22;15738;44.860;10.066;2023-07-02T08:24:06;30.90;99.90
28532;DHT22;15738;44.860;10.066;2023-07-02T08:26:51;31.10;99.90
28532;DHT22;15738;44.860;10.066;2023-07-02T08:29:37;31.20;99.90
28532;DHT22;15738;44.860;10.066;2023-07-02T08:32:24;30.70;99.90
28532;DHT22;15738;44.860;10.066;2023-07-02T08:35:10;30.60;99.90
28532;DHT22;15738;44.860;10.066;2023-07-02T08:37:56;30.60;99.90
28532;DHT22;15738;44.860;10.066;2023-07-02T08:40:42;30.70;99.90
28532;DHT22;15738;44.860;10.066;2023-07-02T08:43:28;31.00;99.90
28532;DHT22;15738;44.860;10.066;2023-07-02T08:46:14;31.30;99.90
28532;DHT22;15738;44.860;10.066;2023-07-02T08:49:00;31.60;99.90
28532;DHT22;15738;44.860;10.066;2023-07-02T08:51:46;31.70;99.90
28532;DHT22;15738;44.860;10.066;2023-07-02T08:54:32;31.90;99.90
28532;DHT22;15738;44.860;10.066;2023-07-02T08:57:18;31.90;99.90
28532;DHT22;15738;44.860;10.066;2023-07-02T09:00:08;31.90;99.90
28532;DHT22;15738;44.860;10.066;2023-07-02T09:02:54;32.00;99.90
28532;DHT22;15738;44.860;10.066;2023-07-02T09:05:50;31.60;99.90
28532;DHT22;15738;44.860;10.066;2023-07-02T09:08:37;31.20;99.90
28532;DHT22;15738;44.860;10.066;2023-07-02T09:11:23;31.00;99.90
28532;DHT22;15738;44.860;10.066;2023-07-02T09:14:08;31.00;99.90
28532;DHT22;15738;44.860;10.066;2023-07-02T09:17:04;31.00;99.90
28532;DHT22;15738;44.860;10.066;2023-07-02T09:19:50;31.20;99.90
28532;DHT22;15738;44.860;10.066;2023-07-02T09:22:36;31.20;99.90
28532;DHT22;15738;44.860;10.066;2023-07-02T09:25:33;31.40;99.90
28532;DHT22;15738;44.860;10.066;2023-07-02T09:28:21;31.20;99.90
28532;DHT22;15738;44.860;10.066;2023-07-02T09:31:08;30.90;99.90
28532;DHT22;15738;44.860;10.066;2023-07-02T09:34:00;31.10;99.90
28532;DHT22;15738;44.860;10.066;2023-07-02T09:36:47;31.10;99.90
28532;DHT22;15738;44.860;10.066;2023-07-02T09:39:33;31.10;99.90
28532;DHT22;15738;44.860;10.066;2023-07-02T09:42:19;31.10;99.90
28532;DHT22;15738;44.860;10.066;2023-07-02T09:45:05;31.00;99.90
28532;DHT22;15738;44.860;10.066;2023-07-02T09:47:53;30.80;99.90
28532;DHT22;15738;44.860;10.066;2023-07-02T09:50:40;30.70;99.90
28532;DHT22;15738;44.860;10.066;2023-07-02T09:53:27;30.80;99.90
28532;DHT22;15738;44.860;10.066;2023-07-02T09:56:12;30.90;99.90
28532;DHT22;15738;44.860;10.066;2023-07-02T09:58:58;30.80;99.90
28532;DHT22;15738;44.860;10.066;2023-07-02T10:01:44;30.70;99.90
28532;DHT22;15738;44.860;10.066;2023-07-02T10:04:39;30.40;99.90
28532;DHT22;15738;44.860;10.066;2023-07-02T10:07:29;30.30;99.90
28532;DHT22;15738;44.860;10.066;2023-07-02T10:10:25;30.10;99.90
28532;DHT22;15738;44.860;10.066;2023-07-02T10:13:11;30.10;99.90
28532;DHT22;15738;44.860;10.066;2023-07-02T10:16:03;30.30;99.90
28532;DHT22;15738;44.860;10.066;2023-07-02T10:18:49;30.40;99.90
28532;DHT22;15738;44.860;10.066;2023-07-02T10:21:35;30.40;99.90
28532;DHT22;15738;44.860;10.066;2023-07-02T10:24:21;30.60;99.90
28532;DHT22;15738;44.860;10.066;2023-07-02T10:27:06;30.40;99.90
28532;DHT22;15738;44.860;10.066;2023-07-02T10:29:53;30.20;99.90
28532;DHT22;15738;44.860;10.066;2023-07-02T10:32:39;30.30;99.90
28532;DHT22;15738;44.860;10.066;2023-07-02T10:35:25;30.30;99.90
28532;DHT22;15738;44.860;10.066;2023-07-02T10:38:19;30.40;99.90
28532;DHT22;15738;44.860;10.066;2023-07-02T10:41:09;30.40;99.90
28532;DHT22;15738;44.860;10.066;2023-07-02T10:44:09;30.40;99.90
28532;DHT22;15738;44.860;10.066;2023-07-02T10:46:55;30.40;99.90
28532;DHT22;15738;44.860;10.066;2023-07-02T10:49:41;30.30;99.90
28532;DHT22;15738;44.860;10.066;2023-07-02T10:52:27;30.40;99.90
28532;DHT22;15738;44.860;10.066;2023-07-02T10:55:22;30.30;99.90
28532;DHT22;15738;44.860;10.066;2023-07-02T10:58:09;29.00;99.90
28532;DHT22;15738;44.860;10.066;2023-07-02T11:00:55;30.40;99.90
28532;DHT22;15738;44.860;10.066;2023-07-02T11:03:41;30.40;99.90
28532;DHT22;15738;44.860;10.066;2023-07-02T11:06:27;30.50;99.90
28532;DHT22;15738;44.860;10.066;2023-07-02T11:09:16;30.50;99.90
28532;DHT22;15738;44.860;10.066;2023-07-02T11:12:02;30.50;99.90
28532;DHT22;15738;44.860;10.066;2023-07-02T11:14:48;30.60;99.90
28532;DHT22;15738;44.860;10.066;2023-07-02T11:17:34;30.40;99.90
28532;DHT22;15738;44.860;10.066;2023-07-02T11:20:20;30.40;99.90
28532;DHT22;15738;44.860;10.066;2023-07-02T11:23:18;30.40;99.90
28532;DHT22;15738;44.860;10.066;2023-07-02T11:26:04;30.30;99.90
28532;DHT22;15738;44.860;10.066;2023-07-02T11:28:50;30.20;99.90
28532;DHT22;15738;44.860;10.066;2023-07-02T11:31:37;30.20;99.90
28532;DHT22;15738;44.860;10.066;2023-07-02T11:34:22;30.30;99.90
28532;DHT22;15738;44.860;10.066;2023-07-02T11:37:10;30.30;99.90
28532;DHT22;15738;44.860;10.066;2023-07-02T11:39:56;30.30;99.90
28532;DHT22;15738;44.860;10.066;2023-07-02T11:42:42;30.30;99.90
28532;DHT22;15738;44.860;10.066;2023-07-02T11:45:29;30.20;99.90
28532;DHT22;15738;44.860;10.066;2023-07-02T11:48:15;30.20;99.90
28532;DHT22;15738;44.860;10.066;2023-07-02T11:51:00;30.30;99.90
28532;DHT22;15738;44.860;10.066;2023-07-02T11:53:46;30.30;99.90
28532;DHT22;15738;44.860;10.066;2023-07-02T11:56:32;30.20;99.90
28532;DHT22;15738;44.860;10.066;2023-07-02T11:59:18;30.00;99.90
28532;DHT22;15738;44.860;10.066;2023-07-02T12:02:04;30.00;99.90
28532;DHT22;15738;44.860;10.066;2023-07-02T12:04:50;30.10;99.90
28532;DHT22;15738;44.860;10.066;2023-07-02T12:07:35;30.10;99.90
28532;DHT22;15738;44.860;10.066;2023-07-02T12:10:21;30.00;99.90
28532;DHT22;15738;44.860;10.066;2023-07-02T12:13:07;30.10;99.90
28532;DHT22;15738;44.860;10.066;2023-07-02T12:15:52;30.00;99.90
28532;DHT22;15738;44.860;10.066;2023-07-02T12:18:38;30.10;99.90
28532;DHT22;15738;44.860;10.066;2023-07-02T12:21:24;30.20;99.90
28532;DHT22;15738;44.860;10.066;2023-07-02T12:24:10;30.30;99.90
28532;DHT22;15738;44.860;10.066;2023-07-02T12:26:56;30.40;99.90
28532;DHT22;15738;44.860;10.066;2023-07-02T12:29:42;30.30;99.90
28532;DHT22;15738;44.860;10.066;2023-07-02T12:32:27;30.30;99.90
28532;DHT22;15738;44.860;10.066;2023-07-02T12:35:14;30.20;99.90
28532;DHT22;15738;44.860;10.066;2023-07-02T12:37:59;30.10;99.90
28532;DHT22;15738;44.860;10.066;2023-07-02T12:40:45;30.20;99.90
28532;DHT22;15738;44.860;10.066;2023-07-02T12:43:31;30.30;99.90
28532;DHT22;15738;44.860;10.066;2023-07-02T12:46:16;30.40;99.90
28532;DHT22;15738;44.860;10.066;2023-07-02T12:49:02;30.60;99.90
28532;DHT22;15738;44.860;10.066;2023-07-02T12:51:48;30.40;99.90
28532;DHT22;15738;44.860;10.066;2023-07-02T12:54:33;30.30;99.90
28532;DHT22;15738;44.860;10.066;2023-07-02T12:57:19;30.30;99.90
28532;DHT22;15738;44.860;10.066;2023-07-02T13:00:05;30.30;99.90
28532;DHT22;15738;44.860;10.066;2023-07-02T13:02:51;30.30;99.90
28532;DHT22;15738;44.860;10.066;2023-07-02T13:05:48;30.20;99.90
28532;DHT22;15738;44.860;10.066;2023-07-02T13:08:34;30.10;99.90
28532;DHT22;15738;44.860;10.066;2023-07-02T13:11:20;30.00;99.90
28532;DHT22;15738;44.860;10.066;2023-07-02T13:14:06;29.90;99.90
28532;DHT22;15738;44.860;10.066;2023-07-02T13:16:52;30.00;99.90
28532;DHT22;15738;44.860;10.066;2023-07-02T13:19:37;30.10;99.90
28532;DHT22;15738;44.860;10.066;2023-07-02T13:22:23;30.20;99.90
28532;DHT22;15738;44.860;10.066;2023-07-02T13:25:09;30.30;99.90
28532;DHT22;15738;44.860;10.066;2023-07-02T13:27:54;30.30;99.90
28532;DHT22;15738;44.860;10.066;2023-07-02T13:30:40;30.40;99.90
28532;DHT22;15738;44.860;10.066;2023-07-02T13:33:26;30.50;99.90
28532;DHT22;15738;44.860;10.066;2023-07-02T13:36:14;30.60;99.90
28532;DHT22;15738;44.860;10.066;2023-07-02T13:39:00;30.70;99.90
28532;DHT22;15738;44.860;10.066;2023-07-02T13:41:45;30.80;99.90
28532;DHT22;15738;44.860;10.066;2023-07-02T13:44:31;30.90;99.90
28532;DHT22;15738;44.860;10.066;2023-07-02T13:47:17;31.00;99.90
28532;DHT22;15738;44.860;10.066;2023-07-02T13:50:03;30.80;99.90
28532;DHT22;15738;44.860;10.066;2023-07-02T13:52:49;30.70;99.90
28532;DHT22;15738;44.860;10.066;2023-07-02T13:55:35;30.50;99.90
28532;DHT22;15738;44.860;10.066;2023-07-02T13:58:22;30.50;99.90
28532;DHT22;15738;44.860;10.066;2023-07-02T14:01:14;30.50;99.90
28532;DHT22;15738;44.860;10.066;2023-07-02T14:04:00;30.50;99.90
28532;DHT22;15738;44.860;10.066;2023-07-02T14:06:47;30.60;99.90
28532;DHT22;15738;44.860;10.066;2023-07-02T14:09:32;30.60;99.90
28532;DHT22;15738;44.860;10.066;2023-07-02T14:12:18;30.60;99.90
28532;DHT22;15738;44.860;10.066;2023-07-02T14:15:04;30.60;99.90
28532;DHT22;15738;44.860;10.066;2023-07-02T14:17:49;30.70;99.90
28532;DHT22;15738;44.860;10.066;2023-07-02T14:20:35;30.80;99.90
28532;DHT22;15738;44.860;10.066;2023-07-02T14:23:21;30.90;99.90
28532;DHT22;15738;44.860;10.066;2023-07-02T14:26:07;30.90;99.90
28532;DHT22;15738;44.860;10.066;2023-07-02T14:28:53;30.90;99.90
28532;DHT22;15738;44.860;10.066;2023-07-02T14:31:39;30.80;99.90
28532;DHT22;15738;44.860;10.066;2023-07-02T14:34:24;30.70;99.90
28532;DHT22;15738;44.860;10.066;2023-07-02T14:37:10;30.70;99.90
28532;DHT22;15738;44.860;10.066;2023-07-02T14:39:56;30.80;99.90
28532;DHT22;15738;44.860;10.066;2023-07-02T14:42:54;30.80;99.90
28532;DHT22;15738;44.860;10.066;2023-07-02T14:45:46;30.90;99.90
28532;DHT22;15738;44.860;10.066;2023-07-02T14:48:32;31.00;99.90
28532;DHT22;15738;44.860;10.066;2023-07-02T14:51:18;31.00;99.90
28532;DHT22;15738;44.860;10.066;2023-07-02T14:54:03;31.00;99.90
28532;DHT22;15738;44.860;10.066;2023-07-02T14:56:51;31.10;99.90
28532;DHT22;15738;44.860;10.066;2023-07-02T14:59:37;31.00;99.90
28532;DHT22;15738;44.860;10.066;2023-07-02T15:02:23;31.00;99.90
28532;DHT22;15738;44.860;10.066;2023-07-02T15:05:08;31.10;99.90
28532;DHT22;15738;44.860;10.066;2023-07-02T15:07:55;31.10;99.90
28532;DHT22;15738;44.860;10.066;2023-07-02T15:10:40;31.00;99.90
28532;DHT22;15738;44.860;10.066;2023-07-02T15:13:26;31.10;99.90
28532;DHT22;15738;44.860;10.066;2023-07-02T15:16:12;31.20;99.90
28532;DHT22;15738;44.860;10.066;2023-07-02T15:18:59;31.20;99.90
28532;DHT22;15738;44.860;10.066;2023-07-02T15:21:44;31.10;99.90
28532;DHT22;15738;44.860;10.066;2023-07-02T15:24:30;31.00;99.90
28532;DHT22;15738;44.860;10.066;2023-07-02T15:27:16;30.90;99.90
28532;DHT22;15738;44.860;10.066;2023-07-02T15:30:02;30.90;99.90
28532;DHT22;15738;44.860;10.066;2023-07-02T15:32:48;30.90;99.90
28532;DHT22;15738;44.860;10.066;2023-07-02T15:35:34;30.90;99.90
28532;DHT22;15738;44.860;10.066;2023-07-02T15:38:20;31.00;99.90
28532;DHT22;15738;44.860;10.066;2023-07-02T15:41:16;31.00;99.90
28532;DHT22;15738;44.860;10.066;2023-07-02T15:44:02;31.00;99.90
28532;DHT22;15738;44.860;10.066;2023-07-02T15:46:49;30.90;99.90
28532;DHT22;15738;44.860;10.066;2023-07-02T15:49:34;30.90;99.90
28532;DHT22;15738;44.860;10.066;2023-07-02T15:52:20;31.00;99.90
28532;DHT22;15738;44.860;10.066;2023-07-02T15:55:06;31.20;99.90
28532;DHT22;15738;44.860;10.066;2023-07-02T15:57:52;31.10;99.90
28532;DHT22;15738;44.860;10.066;2023-07-02T16:00:38;31.00;99.90
28532;DHT22;15738;44.860;10.066;2023-07-02T16:03:23;31.00;99.90
28532;DHT22;15738;44.860;10.066;2023-07-02T16:06:10;31.00;99.90
28532;DHT22;15738;44.860;10.066;2023-07-02T16:08:55;31.00;99.90
28532;DHT22;15738;44.860;10.066;2023-07-02T16:11:41;31.00;99.90
28532;DHT22;15738;44.860;10.066;2023-07-02T16:14:27;31.00;99.90
28532;DHT22;15738;44.860;10.066;2023-07-02T16:17:13;30.90;99.90
28532;DHT22;15738;44.860;10.066;2023-07-02T16:19:59;30.90;99.90
28532;DHT22;15738;44.860;10.066;2023-07-02T16:22:44;30.80;99.90
28532;DHT22;15738;44.860;10.066;2023-07-02T16:25:30;30.70;99.90
28532;DHT22;15738;44.860;10.066;2023-07-02T16:28:16;30.60;99.90
28532;DHT22;15738;44.860;10.066;2023-07-02T16:31:02;30.60;99.90
28532;DHT22;15738;44.860;10.066;2023-07-02T16:33:48;30.50;99.90
28532;DHT22;15738;44.860;10.066;2023-07-02T16:36:36;30.40;99.90
28532;DHT22;15738;44.860;10.066;2023-07-02T16:39:21;30.40;99.90
28532;DHT22;15738;44.860;10.066;2023-07-02T16:42:07;29.90;99.90
28532;DHT22;15738;44.860;10.066;2023-07-02T16:44:53;30.30;99.90
28532;DHT22;15738;44.860;10.066;2023-07-02T16:47:38;30.20;99.90
28532;DHT22;15738;44.860;10.066;2023-07-02T16:50:24;30.20;99.90
28532;DHT22;15738;44.860;10.066;2023-07-02T16:53:10;30.30;99.90
28532;DHT22;15738;44.860;10.066;2023-07-02T16:55:59;30.30;99.90
28532;DHT22;15738;44.860;10.066;2023-07-02T16:58:45;30.40;99.90
28532;DHT22;15738;44.860;10.066;2023-07-02T17:01:31;30.50;99.90
28532;DHT22;15738;44.860;10.066;2023-07-02T17:04:17;30.50;99.90
28532;DHT22;15738;44.860;10.066;2023-07-02T17:07:03;30.40;99.90
28532;DHT22;15738;44.860;10.066;2023-07-02T17:09:49;30.40;99.90
28532;DHT22;15738;44.860;10.066;2023-07-02T17:12:36;30.20;99.90
28532;DHT22;15738;44.860;10.066;2023-07-02T17:15:23;30.10;99.90
28532;DHT22;15738;44.860;10.066;2023-07-02T17:18:09;30.10;99.90
28532;DHT22;15738;44.860;10.066;2023-07-02T17:20:54;30.00;99.90